sensor_id;sensor_type;location;lat;lon;timestamp;pressure;altitude;pressure_sealevel;temperature;humidity
56042;BME280;48756;41.374;2.066;2023-02-16T00:01:39;102430.16;;;10.04;78.83
56042;BME280;48756;41.374;2.066;2023-02-16T00:04:22;102429.03;;;9.93;79.12
56042;BME280;48756;41.374;2.066;2023-02-16T00:06:53;102425.59;;;9.94;79.03
56042;BME280;48756;41.374;2.066;2023-02-16T00:09:20;102421.38;;;9.99;79.17
56042;BME280;48756;41.374;2.066;2023-02-16T00:11:46;102427.25;;;9.91;79.11
56042;BME280;48756;41.374;2.066;2023-02-16T00:14:34;102416.03;;;9.95;79.46
56042;BME280;48756;41.374;2.066;2023-02-16T00:17:00;102416.03;;;9.95;78.95
56042;BME280;48756;41.374;2.066;2023-02-16T00:21:54;102418.47;;;9.86;79.26
56042;BME280;48756;41.374;2.066;2023-02-16T00:24:20;102416.91;;;9.95;79.00
56042;BME280;48756;41.374;2.066;2023-02-16T00:26:46;102414.22;;;9.91;79.29
56042;BME280;48756;41.374;2.066;2023-02-16T00:29:29;102417.75;;;9.93;78.55
56042;BME280;48756;41.374;2.066;2023-02-16T00:32:00;102419.38;;;9.88;78.30
56042;BME280;48756;41.374;2.066;2023-02-16T00:34:36;102413.19;;;9.81;79.03
56042;BME280;48756;41.374;2.066;2023-02-16T00:37:04;102418.28;;;9.75;79.26
56042;BME280;48756;41.374;2.066;2023-02-16T00:39:30;102420.84;;;9.73;79.97
56042;BME280;48756;41.374;2.066;2023-02-16T00:41:57;102413.84;;;9.72;78.76
56042;BME280;48756;41.374;2.066;2023-02-16T00:44:33;102415.19;;;9.52;80.22
56042;BME280;48756;41.374;2.066;2023-02-16T00:47:10;102416.69;;;9.42;79.64
56042;BME280;48756;41.374;2.066;2023-02-16T00:49:37;102413.13;;;9.39;80.12
56042;BME280;48756;41.374;2.066;2023-02-16T00:52:17;102401.47;;;9.61;79.50
56042;BME280;48756;41.374;2.066;2023-02-16T00:54:46;102403.41;;;9.71;79.15
56042;BME280;48756;41.374;2.066;2023-02-16T00:57:15;102400.59;;;9.60;78.93
56042;BME280;48756;41.374;2.066;2023-02-16T00:59:41;102406.19;;;9.38;80.27
56042;BME280;48756;41.374;2.066;2023-02-16T01:02:07;102400.06;;;9.36;81.12
56042;BME280;48756;41.374;2.066;2023-02-16T01:04:33;102405.84;;;9.24;81.23
56042;BME280;48756;41.374;2.066;2023-02-16T01:06:58;102407.78;;;9.31;81.14
56042;BME280;48756;41.374;2.066;2023-02-16T01:09:42;102405.16;;;9.30;81.71
56042;BME280;48756;41.374;2.066;2023-02-16T01:12:26;102409.78;;;9.44;81.01
56042;BME280;48756;41.374;2.066;2023-02-16T01:14:53;102398.44;;;9.41;79.75
56042;BME280;48756;41.374;2.066;2023-02-16T01:17:20;102396.59;;;9.35;80.07
56042;BME280;48756;41.374;2.066;2023-02-16T01:19:46;102397.50;;;9.37;81.57
56042;BME280;48756;41.374;2.066;2023-02-16T01:22:12;102398.34;;;9.36;80.28
56042;BME280;48756;41.374;2.066;2023-02-16T01:24:37;102396.66;;;9.38;81.48
56042;BME280;48756;41.374;2.066;2023-02-16T01:27:03;102390.56;;;9.38;81.18
56042;BME280;48756;41.374;2.066;2023-02-16T01:29:28;102386.53;;;9.50;80.88
56042;BME280;48756;41.374;2.066;2023-02-16T01:31:54;102393.72;;;9.25;81.03
56042;BME280;48756;41.374;2.066;2023-02-16T01:34:20;102396.56;;;9.34;82.36
56042;BME280;48756;41.374;2.066;2023-02-16T01:36:47;102400.03;;;8.97;84.12
56042;BME280;48756;41.374;2.066;2023-02-16T01:39:19;102398.34;;;8.99;82.86
56042;BME280;48756;41.374;2.066;2023-02-16T01:42:11;102393.56;;;9.17;82.28
56042;BME280;48756;41.374;2.066;2023-02-16T01:44:43;102392.97;;;9.29;81.93
56042;BME280;48756;41.374;2.066;2023-02-16T01:49:44;102392.09;;;9.28;81.35
56042;BME280;48756;41.374;2.066;2023-02-16T01:52:28;102389.50;;;9.28;80.67
56042;BME280;48756;41.374;2.066;2023-02-16T01:58:00;102383.66;;;9.38;81.78
56042;BME280;48756;41.374;2.066;2023-02-16T02:03:22;102380.88;;;9.31;81.85
56042;BME280;48756;41.374;2.066;2023-02-16T02:06:22;102379.97;;;9.29;81.33
56042;BME280;48756;41.374;2.066;2023-02-16T02:08:55;102378.19;;;9.28;81.64
56042;BME280;48756;41.374;2.066;2023-02-16T02:11:29;102378.19;;;9.28;81.60
56042;BME280;48756;41.374;2.066;2023-02-16T02:14:02;102367.88;;;9.31;81.47
56042;BME280;48756;41.374;2.066;2023-02-16T02:16:29;102368.56;;;9.24;79.76
56042;BME280;48756;41.374;2.066;2023-02-16T02:18:54;102372.66;;;9.12;82.18
56042;BME280;48756;41.374;2.066;2023-02-16T02:27:17;102369.97;;;9.08;82.08
56042;BME280;48756;41.374;2.066;2023-02-16T02:38:20;102366.16;;;8.94;81.71
56042;BME280;48756;41.374;2.066;2023-02-16T02:44:14;102372.88;;;8.49;84.69
56042;BME280;48756;41.374;2.066;2023-02-16T02:46:42;102373.56;;;8.42;84.30
56042;BME280;48756;41.374;2.066;2023-02-16T02:49:07;102370.97;;;8.42;84.88
56042;BME280;48756;41.374;2.066;2023-02-16T02:51:33;102362.63;;;8.55;84.30
56042;BME280;48756;41.374;2.066;2023-02-16T02:56:47;102365.81;;;8.80;83.30
56042;BME280;48756;41.374;2.066;2023-02-16T02:59:34;102367.97;;;8.60;84.11
56042;BME280;48756;41.374;2.066;2023-02-16T03:02:23;102370.66;;;8.65;83.92
56042;BME280;48756;41.374;2.066;2023-02-16T03:04:52;102363.56;;;8.94;83.89
56042;BME280;48756;41.374;2.066;2023-02-16T03:07:21;102358.41;;;8.95;83.79
56042;BME280;48756;41.374;2.066;2023-02-16T03:10:08;102360.19;;;8.98;83.26
56042;BME280;48756;41.374;2.066;2023-02-16T03:12:55;102356.50;;;9.27;81.92
56042;BME280;48756;41.374;2.066;2023-02-16T03:15:22;102361.06;;;9.37;81.40
56042;BME280;48756;41.374;2.066;2023-02-16T03:17:50;102351.66;;;9.44;80.13
56042;BME280;48756;41.374;2.066;2023-02-16T03:20:41;102355.34;;;9.13;80.00
56042;BME280;48756;41.374;2.066;2023-02-16T03:23:26;102363.25;;;9.17;79.75
56042;BME280;48756;41.374;2.066;2023-02-16T03:26:11;102365.72;;;8.75;80.14
56042;BME280;48756;41.374;2.066;2023-02-16T03:28:57;102360.53;;;9.13;79.97
56042;BME280;48756;41.374;2.066;2023-02-16T03:31:40;102365.31;;;8.95;79.36
56042;BME280;48756;41.374;2.066;2023-02-16T03:34:06;102362.06;;;9.05;78.47
56042;BME280;48756;41.374;2.066;2023-02-16T03:36:33;102357.63;;;8.99;78.71
56042;BME280;48756;41.374;2.066;2023-02-16T03:39:03;102360.22;;;8.99;79.25
56042;BME280;48756;41.374;2.066;2023-02-16T03:41:45;102362.28;;;8.76;78.46
56042;BME280;48756;41.374;2.066;2023-02-16T03:44:12;102359.78;;;8.81;79.31
56042;BME280;48756;41.374;2.066;2023-02-16T03:46:37;102364.69;;;8.69;80.31
56042;BME280;48756;41.374;2.066;2023-02-16T03:49:03;102362.88;;;9.02;79.12
56042;BME280;48756;41.374;2.066;2023-02-16T03:51:28;102366.97;;;8.91;78.63
56042;BME280;48756;41.374;2.066;2023-02-16T03:53:54;102369.94;;;8.70;79.07
56042;BME280;48756;41.374;2.066;2023-02-16T03:56:19;102369.97;;;8.72;79.64
56042;BME280;48756;41.374;2.066;2023-02-16T03:58:48;102374.84;;;8.59;79.15
56042;BME280;48756;41.374;2.066;2023-02-16T04:01:14;102371.69;;;8.71;80.36
56042;BME280;48756;41.374;2.066;2023-02-16T04:03:39;102371.78;;;8.76;79.65
56042;BME280;48756;41.374;2.066;2023-02-16T04:06:05;102366.06;;;8.89;79.73
56042;BME280;48756;41.374;2.066;2023-02-16T04:08:30;102363.78;;;8.67;79.52
56042;BME280;48756;41.374;2.066;2023-02-16T04:10:56;102365.44;;;8.63;79.76
56042;BME280;48756;41.374;2.066;2023-02-16T04:13:22;102357.91;;;8.75;81.04
56042;BME280;48756;41.374;2.066;2023-02-16T04:15:48;102356.34;;;8.82;80.01
56042;BME280;48756;41.374;2.066;2023-02-16T04:18:14;102359.56;;;8.72;81.25
56042;BME280;48756;41.374;2.066;2023-02-16T04:20:40;102353.75;;;8.82;81.18
56042;BME280;48756;41.374;2.066;2023-02-16T04:23:05;102355.19;;;9.05;80.13
56042;BME280;48756;41.374;2.066;2023-02-16T04:25:31;102363.50;;;8.56;82.09
56042;BME280;48756;41.374;2.066;2023-02-16T04:27:57;102362.09;;;8.34;81.54
56042;BME280;48756;41.374;2.066;2023-02-16T04:30:25;102360.56;;;8.11;80.46
56042;BME280;48756;41.374;2.066;2023-02-16T04:32:51;102360.56;;;8.11;81.44
56042;BME280;48756;41.374;2.066;2023-02-16T04:35:20;102365.41;;;8.30;79.55
56042;BME280;48756;41.374;2.066;2023-02-16T04:37:46;102364.19;;;8.16;80.45
56042;BME280;48756;41.374;2.066;2023-02-16T04:40:13;102364.47;;;8.26;79.60
56042;BME280;48756;41.374;2.066;2023-02-16T04:42:40;102372.28;;;7.95;80.73
56042;BME280;48756;41.374;2.066;2023-02-16T04:45:05;102369.88;;;8.03;80.19
56042;BME280;48756;41.374;2.066;2023-02-16T04:47:31;102376.00;;;8.05;81.03
56042;BME280;48756;41.374;2.066;2023-02-16T04:49:57;102369.00;;;8.02;80.48
56042;BME280;48756;41.374;2.066;2023-02-16T04:52:22;102367.63;;;7.83;79.96
56042;BME280;48756;41.374;2.066;2023-02-16T04:54:51;102369.88;;;8.03;79.95
56042;BME280;48756;41.374;2.066;2023-02-16T04:57:16;102373.44;;;8.06;79.94
56042;BME280;48756;41.374;2.066;2023-02-16T04:59:43;102372.72;;;8.12;78.89
56042;BME280;48756;41.374;2.066;2023-02-16T05:02:09;102379.59;;;7.78;78.27
56042;BME280;48756;41.374;2.066;2023-02-16T05:04:34;102378.25;;;7.62;78.78
56042;BME280;48756;41.374;2.066;2023-02-16T05:07:00;102375.63;;;7.61;78.05
56042;BME280;48756;41.374;2.066;2023-02-16T05:09:25;102383.50;;;7.64;78.50
56042;BME280;48756;41.374;2.066;2023-02-16T05:11:54;102383.19;;;7.53;79.64
56042;BME280;48756;41.374;2.066;2023-02-16T05:14:38;102378.44;;;7.68;78.05
56042;BME280;48756;41.374;2.066;2023-02-16T05:17:19;102386.69;;;7.85;77.15
56042;BME280;48756;41.374;2.066;2023-02-16T05:19:49;102393.53;;;7.52;79.00
56042;BME280;48756;41.374;2.066;2023-02-16T05:22:16;102400.47;;;7.53;79.11
56042;BME280;48756;41.374;2.066;2023-02-16T05:24:42;102385.00;;;7.56;78.28
56042;BME280;48756;41.374;2.066;2023-02-16T05:27:21;102397.69;;;7.47;78.62
56042;BME280;48756;41.374;2.066;2023-02-16T05:29:47;102388.69;;;7.64;79.06
56042;BME280;48756;41.374;2.066;2023-02-16T05:32:13;102393.78;;;7.61;78.91
56042;BME280;48756;41.374;2.066;2023-02-16T05:34:39;102397.94;;;7.54;78.32
56042;BME280;48756;41.374;2.066;2023-02-16T05:37:05;102392.44;;;7.45;79.33
56042;BME280;48756;41.374;2.066;2023-02-16T05:39:30;102390.25;;;7.29;80.29
56042;BME280;48756;41.374;2.066;2023-02-16T05:41:56;102381.41;;;7.51;80.22
56042;BME280;48756;41.374;2.066;2023-02-16T05:44:22;102392.22;;;7.37;81.07
56042;BME280;48756;41.374;2.066;2023-02-16T05:46:48;102391.34;;;7.37;80.41
56042;BME280;48756;41.374;2.066;2023-02-16T05:49:14;102388.09;;;7.44;80.34
56042;BME280;48756;41.374;2.066;2023-02-16T05:51:41;102390.88;;;7.22;82.22
56042;BME280;48756;41.374;2.066;2023-02-16T05:54:07;102392.72;;;7.24;82.49
56042;BME280;48756;41.374;2.066;2023-02-16T05:56:32;102391.97;;;7.28;81.81
56042;BME280;48756;41.374;2.066;2023-02-16T05:58:59;102397.81;;;7.23;83.77
56042;BME280;48756;41.374;2.066;2023-02-16T06:01:25;102398.16;;;7.33;83.17
56042;BME280;48756;41.374;2.066;2023-02-16T06:03:51;102395.56;;;7.33;83.38
56042;BME280;48756;41.374;2.066;2023-02-16T06:06:16;102397.94;;;7.26;83.59
56042;BME280;48756;41.374;2.066;2023-02-16T06:08:42;102399.13;;;7.37;83.16
56042;BME280;48756;41.374;2.066;2023-02-16T06:11:08;102402.00;;;7.18;82.43
56042;BME280;48756;41.374;2.066;2023-02-16T06:13:52;102404.91;;;7.01;82.08
56042;BME280;48756;41.374;2.066;2023-02-16T06:16:29;102409.41;;;7.05;82.20
56042;BME280;48756;41.374;2.066;2023-02-16T06:18:56;102396.63;;;7.12;81.36
56042;BME280;48756;41.374;2.066;2023-02-16T06:21:22;102407.63;;;7.04;80.59
56042;BME280;48756;41.374;2.066;2023-02-16T06:23:48;102400.34;;;6.93;81.30
56042;BME280;48756;41.374;2.066;2023-02-16T06:26:14;102405.88;;;7.03;80.79
56042;BME280;48756;41.374;2.066;2023-02-16T06:28:40;102411.25;;;7.10;80.79
56042;BME280;48756;41.374;2.066;2023-02-16T06:31:05;102415.69;;;7.14;80.68
56042;BME280;48756;41.374;2.066;2023-02-16T06:33:31;102415.25;;;7.00;80.94
56042;BME280;48756;41.374;2.066;2023-02-16T06:35:56;102418.34;;;6.88;82.23
56042;BME280;48756;41.374;2.066;2023-02-16T06:38:22;102415.88;;;6.66;82.69
56042;BME280;48756;41.374;2.066;2023-02-16T06:40:51;102418.78;;;6.76;84.00
56042;BME280;48756;41.374;2.066;2023-02-16T06:43:16;102425.09;;;6.83;82.23
56042;BME280;48756;41.374;2.066;2023-02-16T06:45:42;102424.91;;;6.79;82.55
56042;BME280;48756;41.374;2.066;2023-02-16T06:48:07;102434.41;;;6.53;82.13
56042;BME280;48756;41.374;2.066;2023-02-16T06:50:33;102428.31;;;6.78;81.81
56042;BME280;48756;41.374;2.066;2023-02-16T06:52:59;102434.53;;;6.81;80.69
56042;BME280;48756;41.374;2.066;2023-02-16T06:55:25;102443.03;;;6.79;80.78
56042;BME280;48756;41.374;2.066;2023-02-16T06:57:50;102440.81;;;6.89;80.05
56042;BME280;48756;41.374;2.066;2023-02-16T07:00:16;102445.38;;;6.96;80.09
56042;BME280;48756;41.374;2.066;2023-02-16T07:02:41;102441.56;;;6.85;80.66
56042;BME280;48756;41.374;2.066;2023-02-16T07:05:08;102451.34;;;7.21;78.91
56042;BME280;48756;41.374;2.066;2023-02-16T07:07:34;102457.59;;;7.00;79.50
56042;BME280;48756;41.374;2.066;2023-02-16T07:10:00;102448.66;;;7.46;77.23
56042;BME280;48756;41.374;2.066;2023-02-16T07:12:27;102461.88;;;7.00;78.07
56042;BME280;48756;41.374;2.066;2023-02-16T07:14:52;102460.25;;;7.02;77.42
56042;BME280;48756;41.374;2.066;2023-02-16T07:17:18;102470.56;;;6.75;77.72
56042;BME280;48756;41.374;2.066;2023-02-16T07:19:44;102469.53;;;6.70;78.27
56042;BME280;48756;41.374;2.066;2023-02-16T07:22:09;102473.78;;;6.93;77.05
56042;BME280;48756;41.374;2.066;2023-02-16T07:24:35;102472.38;;;7.03;76.31
56042;BME280;48756;41.374;2.066;2023-02-16T07:27:00;102474.81;;;6.73;77.54
56042;BME280;48756;41.374;2.066;2023-02-16T07:29:31;102485.47;;;6.81;77.64
56042;BME280;48756;41.374;2.066;2023-02-16T07:31:57;102477.56;;;7.03;77.41
56042;BME280;48756;41.374;2.066;2023-02-16T07:34:23;102479.91;;;7.22;77.25
56042;BME280;48756;41.374;2.066;2023-02-16T07:36:48;102481.75;;;6.99;78.27
56042;BME280;48756;41.374;2.066;2023-02-16T07:39:14;102485.09;;;7.22;78.04
56042;BME280;48756;41.374;2.066;2023-02-16T07:41:40;102492.84;;;7.48;77.86
56042;BME280;48756;41.374;2.066;2023-02-16T07:44:06;102496.50;;;7.27;78.08
56042;BME280;48756;41.374;2.066;2023-02-16T07:46:31;102503.69;;;7.09;79.04
56042;BME280;48756;41.374;2.066;2023-02-16T07:49:00;102504.03;;;7.20;78.23
56042;BME280;48756;41.374;2.066;2023-02-16T07:51:27;102501.53;;;7.23;77.92
56042;BME280;48756;41.374;2.066;2023-02-16T07:53:53;102510.31;;;7.26;78.88
56042;BME280;48756;41.374;2.066;2023-02-16T07:56:21;102506.94;;;7.29;77.24
56042;BME280;48756;41.374;2.066;2023-02-16T07:58:46;102505.03;;;7.50;76.25
56042;BME280;48756;41.374;2.066;2023-02-16T08:01:13;102511.50;;;7.64;75.54
56042;BME280;48756;41.374;2.066;2023-02-16T08:03:39;102515.03;;;7.66;75.82
56042;BME280;48756;41.374;2.066;2023-02-16T08:06:08;102510.44;;;7.86;75.14
56042;BME280;48756;41.374;2.066;2023-02-16T08:08:40;102512.44;;;7.66;75.70
56042;BME280;48756;41.374;2.066;2023-02-16T08:11:20;102513.44;;;7.70;76.16
56042;BME280;48756;41.374;2.066;2023-02-16T08:13:46;102518.97;;;7.54;76.28
56042;BME280;48756;41.374;2.066;2023-02-16T08:16:23;102522.19;;;7.47;75.58
56042;BME280;48756;41.374;2.066;2023-02-16T08:18:49;102515.44;;;7.52;75.75
56042;BME280;48756;41.374;2.066;2023-02-16T08:21:16;102520.16;;;7.65;75.19
56042;BME280;48756;41.374;2.066;2023-02-16T08:23:51;102524.28;;;7.58;74.95
56042;BME280;48756;41.374;2.066;2023-02-16T08:26:17;102524.84;;;8.05;72.62
56042;BME280;48756;41.374;2.066;2023-02-16T08:28:45;102512.13;;;7.84;72.70
56042;BME280;48756;41.374;2.066;2023-02-16T08:31:15;102517.66;;;7.95;71.84
56042;BME280;48756;41.374;2.066;2023-02-16T08:33:43;102520.72;;;8.12;71.39
56042;BME280;48756;41.374;2.066;2023-02-16T08:36:20;102521.16;;;7.97;71.76
56042;BME280;48756;41.374;2.066;2023-02-16T08:38:48;102512.88;;;8.10;71.35
56042;BME280;48756;41.374;2.066;2023-02-16T08:41:18;102528.25;;;8.03;70.23
56042;BME280;48756;41.374;2.066;2023-02-16T08:43:44;102528.06;;;7.96;71.61
56042;BME280;48756;41.374;2.066;2023-02-16T08:46:10;102534.59;;;7.84;71.18
56042;BME280;48756;41.374;2.066;2023-02-16T08:48:36;102530.50;;;8.20;70.64
56042;BME280;48756;41.374;2.066;2023-02-16T08:51:02;102530.75;;;8.29;70.51
56042;BME280;48756;41.374;2.066;2023-02-16T08:53:31;102532.41;;;7.97;70.57
56042;BME280;48756;41.374;2.066;2023-02-16T08:56:02;102527.50;;;8.37;68.84
56042;BME280;48756;41.374;2.066;2023-02-16T08:58:29;102533.16;;;8.52;68.95
56042;BME280;48756;41.374;2.066;2023-02-16T09:00:55;102531.31;;;8.81;69.11
56042;BME280;48756;41.374;2.066;2023-02-16T09:03:20;102546.34;;;8.29;69.21
56042;BME280;48756;41.374;2.066;2023-02-16T09:05:51;102538.31;;;8.50;68.88
56042;BME280;48756;41.374;2.066;2023-02-16T09:08:17;102538.91;;;8.72;68.38
56042;BME280;48756;41.374;2.066;2023-02-16T09:10:43;102538.41;;;8.85;68.05
56042;BME280;48756;41.374;2.066;2023-02-16T09:13:10;102543.41;;;8.79;69.41
56042;BME280;48756;41.374;2.066;2023-02-16T09:15:42;102535.94;;;8.59;68.52
56042;BME280;48756;41.374;2.066;2023-02-16T09:18:12;102531.09;;;8.72;68.65
56042;BME280;48756;41.374;2.066;2023-02-16T09:20:42;102539.28;;;9.55;66.38
56042;BME280;48756;41.374;2.066;2023-02-16T09:23:09;102543.41;;;9.84;64.29
56042;BME280;48756;41.374;2.066;2023-02-16T09:25:39;102541.81;;;9.51;66.60
56042;BME280;48756;41.374;2.066;2023-02-16T09:28:06;102537.16;;;9.76;66.52
56042;BME280;48756;41.374;2.066;2023-02-16T09:30:35;102536.59;;;9.89;64.82
56042;BME280;48756;41.374;2.066;2023-02-16T09:33:02;102536.22;;;10.13;65.32
56042;BME280;48756;41.374;2.066;2023-02-16T09:35:27;102533.06;;;9.87;64.07
56042;BME280;48756;41.374;2.066;2023-02-16T09:37:53;102534.06;;;9.94;65.09
56042;BME280;48756;41.374;2.066;2023-02-16T09:40:19;102539.66;;;10.10;63.72
56042;BME280;48756;41.374;2.066;2023-02-16T09:45:15;102543.00;;;10.05;64.31
56042;BME280;48756;41.374;2.066;2023-02-16T09:47:44;102551.41;;;10.31;63.11
56042;BME280;48756;41.374;2.066;2023-02-16T09:50:31;102543.75;;;9.98;62.73
56042;BME280;48756;41.374;2.066;2023-02-16T09:53:02;102547.13;;;9.95;62.61
56042;BME280;48756;41.374;2.066;2023-02-16T09:58:47;102555.09;;;10.01;62.29
56042;BME280;48756;41.374;2.066;2023-02-16T10:09:13;102554.19;;;9.99;63.02
56042;BME280;48756;41.374;2.066;2023-02-16T10:11:51;102569.59;;;9.52;64.47
56042;BME280;48756;41.374;2.066;2023-02-16T10:17:17;102575.78;;;9.58;64.57
56042;BME280;48756;41.374;2.066;2023-02-16T10:20:20;102579.38;;;9.63;64.68
56042;BME280;48756;41.374;2.066;2023-02-16T10:25:58;102587.38;;;9.72;64.16
56042;BME280;48756;41.374;2.066;2023-02-16T10:28:35;102582.31;;;9.76;63.81
56042;BME280;48756;41.374;2.066;2023-02-16T10:31:09;102586.34;;;10.40;62.80
56042;BME280;48756;41.374;2.066;2023-02-16T10:41:46;102589.44;;;9.49;64.91
56042;BME280;48756;41.374;2.066;2023-02-16T10:44:20;102590.91;;;9.38;66.59
56042;BME280;48756;41.374;2.066;2023-02-16T10:46:55;102593.63;;;9.78;64.98
56042;BME280;48756;41.374;2.066;2023-02-16T10:49:23;102591.00;;;9.42;65.60
56042;BME280;48756;41.374;2.066;2023-02-16T10:51:50;102593.91;;;9.91;64.14
56042;BME280;48756;41.374;2.066;2023-02-16T10:54:23;102591.72;;;9.71;64.89
56042;BME280;48756;41.374;2.066;2023-02-16T10:59:42;102583.94;;;10.50;63.08
56042;BME280;48756;41.374;2.066;2023-02-16T11:02:27;102579.50;;;10.89;61.80
56042;BME280;48756;41.374;2.066;2023-02-16T11:04:56;102589.50;;;10.24;63.59
56042;BME280;48756;41.374;2.066;2023-02-16T11:07:25;102585.53;;;10.04;63.03
56042;BME280;48756;41.374;2.066;2023-02-16T11:09:53;102582.22;;;10.50;62.10
56042;BME280;48756;41.374;2.066;2023-02-16T11:12:27;102587.53;;;10.56;61.80
56042;BME280;48756;41.374;2.066;2023-02-16T11:14:57;102586.19;;;10.75;61.58
56042;BME280;48756;41.374;2.066;2023-02-16T11:17:26;102576.03;;;10.89;61.45
56042;BME280;48756;41.374;2.066;2023-02-16T11:19:59;102581.72;;;10.68;61.71
56042;BME280;48756;41.374;2.066;2023-02-16T11:24:50;102569.66;;;11.23;60.50
56042;BME280;48756;41.374;2.066;2023-02-16T11:27:19;102573.84;;;11.12;60.06
56042;BME280;48756;41.374;2.066;2023-02-16T11:29:45;102568.91;;;11.30;60.94
56042;BME280;48756;41.374;2.066;2023-02-16T11:32:12;102563.69;;;11.30;59.90
56042;BME280;48756;41.374;2.066;2023-02-16T11:34:41;102559.59;;;10.93;61.59
56042;BME280;48756;41.374;2.066;2023-02-16T11:37:30;102565.22;;;11.70;61.05
56042;BME280;48756;41.374;2.066;2023-02-16T11:40:06;102558.03;;;11.55;60.78
56042;BME280;48756;41.374;2.066;2023-02-16T11:42:39;102554.69;;;11.11;61.13
56042;BME280;48756;41.374;2.066;2023-02-16T11:45:21;102557.41;;;11.72;61.27
56042;BME280;48756;41.374;2.066;2023-02-16T11:47:52;102539.97;;;12.33;58.37
56042;BME280;48756;41.374;2.066;2023-02-16T11:50:37;102545.00;;;12.92;57.35
56042;BME280;48756;41.374;2.066;2023-02-16T11:55:40;102553.00;;;13.08;55.73
56042;BME280;48756;41.374;2.066;2023-02-16T11:58:23;102544.38;;;13.17;55.15
56042;BME280;48756;41.374;2.066;2023-02-16T12:09:17;102535.31;;;12.07;60.43
56042;BME280;48756;41.374;2.066;2023-02-16T12:12:02;102532.06;;;12.26;58.31
56042;BME280;48756;41.374;2.066;2023-02-16T12:20:40;102513.59;;;12.92;56.91
56042;BME280;48756;41.374;2.066;2023-02-16T12:29:02;102495.78;;;13.53;56.68
56042;BME280;48756;41.374;2.066;2023-02-16T12:31:57;102500.25;;;13.66;55.65
56042;BME280;48756;41.374;2.066;2023-02-16T12:37:04;102482.19;;;14.37;53.67
56042;BME280;48756;41.374;2.066;2023-02-16T12:44:54;102476.94;;;14.34;55.00
56042;BME280;48756;41.374;2.066;2023-02-16T12:50:26;102467.44;;;14.90;55.75
56042;BME280;48756;41.374;2.066;2023-02-16T12:52:58;102463.06;;;14.92;56.22
56042;BME280;48756;41.374;2.066;2023-02-16T12:55:30;102463.94;;;15.14;56.15
56042;BME280;48756;41.374;2.066;2023-02-16T13:00:40;102463.03;;;15.65;55.66
56042;BME280;48756;41.374;2.066;2023-02-16T13:03:19;102459.44;;;15.87;55.13
56042;BME280;48756;41.374;2.066;2023-02-16T13:05:55;102459.50;;;15.39;60.28
56042;BME280;48756;41.374;2.066;2023-02-16T13:11:24;102454.84;;;16.32;57.72
56042;BME280;48756;41.374;2.066;2023-02-16T13:13:56;102448.50;;;16.62;56.60
56042;BME280;48756;41.374;2.066;2023-02-16T13:16:39;102451.28;;;16.38;57.41
56042;BME280;48756;41.374;2.066;2023-02-16T13:19:11;102452.34;;;16.03;58.54
56042;BME280;48756;41.374;2.066;2023-02-16T13:43:58;102427.81;;;16.07;56.20
56042;BME280;48756;41.374;2.066;2023-02-16T13:46:31;102428.38;;;16.53;55.94
56042;BME280;48756;41.374;2.066;2023-02-16T13:48:57;102424.16;;;16.33;55.97
56042;BME280;48756;41.374;2.066;2023-02-16T13:51:26;102411.63;;;16.68;54.59
56042;BME280;48756;41.374;2.066;2023-02-16T13:54:01;102404.41;;;16.92;54.70
56042;BME280;48756;41.374;2.066;2023-02-16T13:56:31;102399.81;;;17.12;52.90
56042;BME280;48756;41.374;2.066;2023-02-16T14:01:50;102398.41;;;16.76;53.16
56042;BME280;48756;41.374;2.066;2023-02-16T14:15:15;102395.19;;;17.35;51.02
56042;BME280;48756;41.374;2.066;2023-02-16T14:22:37;102391.94;;;17.09;52.66
56042;BME280;48756;41.374;2.066;2023-02-16T14:25:34;102398.88;;;17.21;53.78
56042;BME280;48756;41.374;2.066;2023-02-16T14:30:45;102387.00;;;16.78;55.62
56042;BME280;48756;41.374;2.066;2023-02-16T14:36:05;102390.25;;;17.03;57.36
56042;BME280;48756;41.374;2.066;2023-02-16T14:38:32;102388.13;;;16.41;58.07
56042;BME280;48756;41.374;2.066;2023-02-16T14:41:04;102381.53;;;16.95;56.97
56042;BME280;48756;41.374;2.066;2023-02-16T14:43:34;102385.97;;;16.90;57.95
56042;BME280;48756;41.374;2.066;2023-02-16T14:58:13;102378.19;;;16.79;57.97
56042;BME280;48756;41.374;2.066;2023-02-16T15:00:47;102386.34;;;16.44;57.65
56042;BME280;48756;41.374;2.066;2023-02-16T15:03:21;102390.00;;;16.23;58.43
56042;BME280;48756;41.374;2.066;2023-02-16T15:05:54;102385.56;;;16.33;59.18
56042;BME280;48756;41.374;2.066;2023-02-16T15:08:29;102386.47;;;16.24;58.32
56042;BME280;48756;41.374;2.066;2023-02-16T15:11:13;102388.19;;;16.35;58.26
56042;BME280;48756;41.374;2.066;2023-02-16T15:13:40;102382.94;;;16.33;57.59
56042;BME280;48756;41.374;2.066;2023-02-16T15:16:09;102395.84;;;16.64;57.45
56042;BME280;48756;41.374;2.066;2023-02-16T15:18:43;102386.28;;;16.53;57.08
56042;BME280;48756;41.374;2.066;2023-02-16T15:21:25;102386.19;;;16.67;56.11
56042;BME280;48756;41.374;2.066;2023-02-16T15:23:54;102381.78;;;16.68;56.98
56042;BME280;48756;41.374;2.066;2023-02-16T15:26:23;102385.41;;;16.51;58.17
56042;BME280;48756;41.374;2.066;2023-02-16T15:28:55;102394.34;;;16.28;58.84
56042;BME280;48756;41.374;2.066;2023-02-16T15:31:31;102386.56;;;16.11;58.95
56042;BME280;48756;41.374;2.066;2023-02-16T15:34:00;102397.09;;;16.05;59.48
56042;BME280;48756;41.374;2.066;2023-02-16T15:36:32;102397.94;;;16.16;59.05
56042;BME280;48756;41.374;2.066;2023-02-16T15:39:29;102392.63;;;16.22;59.06
56042;BME280;48756;41.374;2.066;2023-02-16T15:42:18;102396.84;;;16.44;57.85
56042;BME280;48756;41.374;2.066;2023-02-16T15:44:45;102396.19;;;16.16;58.75
56042;BME280;48756;41.374;2.066;2023-02-16T15:47:20;102399.72;;;16.12;61.14
56042;BME280;48756;41.374;2.066;2023-02-16T15:49:46;102396.31;;;15.90;60.82
56042;BME280;48756;41.374;2.066;2023-02-16T15:54:45;102397.34;;;15.50;63.61
56042;BME280;48756;41.374;2.066;2023-02-16T15:57:33;102402.53;;;15.76;62.39
56042;BME280;48756;41.374;2.066;2023-02-16T16:05:00;102402.69;;;15.04;64.84